sensor_id;sensor_type;location;lat;lon;timestamp;pressure;altitude;pressure_sealevel;temperature;humidity
61119;BME280;51448;51.660;5.824;2023-01-09T00:01:28;99295.94;;;7.50;100.00
61119;BME280;51448;51.660;5.824;2023-01-09T00:03:59;99302.16;;;7.47;100.00
61119;BME280;51448;51.660;5.824;2023-01-09T00:06:27;99299.66;;;7.44;100.00
61119;BME280;51448;51.660;5.824;2023-01-09T00:08:54;99297.97;;;7.43;100.00
61119;BME280;51448;51.660;5.824;2023-01-09T00:11:22;99292.00;;;7.39;100.00
61119;BME280;51448;51.660;5.824;2023-01-09T00:13:50;99298.06;;;7.40;100.00
61119;BME280;51448;51.660;5.824;2023-01-09T00:16:18;99302.59;;;7.36;100.00
61119;BME280;51448;51.660;5.824;2023-01-09T00:18:45;99287.94;;;7.32;100.00
61119;BME280;51448;51.660;5.824;2023-01-09T00:21:13;99297.59;;;7.30;100.00
61119;BME280;51448;51.660;5.824;2023-01-09T00:23:42;99295.94;;;7.28;100.00
61119;BME280;51448;51.660;5.824;2023-01-09T00:26:15;99289.91;;;7.25;100.00
61119;BME280;51448;51.660;5.824;2023-01-09T00:28:46;99294.50;;;7.20;100.00
61119;BME280;51448;51.660;5.824;2023-01-09T00:31:17;99300.63;;;7.19;100.00
61119;BME280;51448;51.660;5.824;2023-01-09T00:36:33;99308.81;;;7.10;100.00
61119;BME280;51448;51.660;5.824;2023-01-09T00:39:00;99303.69;;;7.07;100.00
61119;BME280;51448;51.660;5.824;2023-01-09T00:41:36;99314.28;;;7.04;100.00
61119;BME280;51448;51.660;5.824;2023-01-09T00:44:21;99317.97;;;6.98;100.00
61119;BME280;51448;51.660;5.824;2023-01-09T00:47:04;99316.44;;;6.93;100.00
61119;BME280;51448;51.660;5.824;2023-01-09T00:49:37;99314.00;;;6.88;100.00
61119;BME280;51448;51.660;5.824;2023-01-09T00:52:05;99317.63;;;6.84;100.00
61119;BME280;51448;51.660;5.824;2023-01-09T00:54:36;99318.78;;;6.77;100.00
61119;BME280;51448;51.660;5.824;2023-01-09T00:57:06;99322.47;;;6.71;100.00
61119;BME280;51448;51.660;5.824;2023-01-09T00:59:34;99316.50;;;6.68;100.00
61119;BME280;51448;51.660;5.824;2023-01-09T01:02:01;99322.69;;;6.65;100.00
61119;BME280;51448;51.660;5.824;2023-01-09T01:04:30;99328.94;;;6.61;100.00
61119;BME280;51448;51.660;5.824;2023-01-09T01:07:16;99341.28;;;6.56;100.00
61119;BME280;51448;51.660;5.824;2023-01-09T01:10:09;99326.63;;;6.52;100.00
61119;BME280;51448;51.660;5.824;2023-01-09T01:12:39;99328.56;;;6.47;100.00
61119;BME280;51448;51.660;5.824;2023-01-09T01:15:08;99334.75;;;6.44;100.00
61119;BME280;51448;51.660;5.824;2023-01-09T01:17:39;99334.06;;;6.39;100.00
61119;BME280;51448;51.660;5.824;2023-01-09T01:20:11;99331.56;;;6.36;100.00
61119;BME280;51448;51.660;5.824;2023-01-09T01:22:41;99330.00;;;6.30;100.00
61119;BME280;51448;51.660;5.824;2023-01-09T01:25:10;99335.31;;;6.27;100.00
61119;BME280;51448;51.660;5.824;2023-01-09T01:27:40;99337.22;;;6.23;100.00
61119;BME280;51448;51.660;5.824;2023-01-09T01:30:10;99332.91;;;6.21;100.00
61119;BME280;51448;51.660;5.824;2023-01-09T01:32:41;99337.41;;;6.17;100.00
61119;BME280;51448;51.660;5.824;2023-01-09T01:35:09;99346.19;;;6.15;100.00
61119;BME280;51448;51.660;5.824;2023-01-09T01:37:38;99337.63;;;6.11;100.00
61119;BME280;51448;51.660;5.824;2023-01-09T01:40:08;99339.47;;;6.08;100.00
61119;BME280;51448;51.660;5.824;2023-01-09T01:42:47;99336.91;;;6.06;100.00
61119;BME280;51448;51.660;5.824;2023-01-09T01:45:24;99337.06;;;6.01;100.00
61119;BME280;51448;51.660;5.824;2023-01-09T01:48:12;99337.13;;;6.00;100.00
61119;BME280;51448;51.660;5.824;2023-01-09T01:50:47;99339.84;;;5.97;100.00
61119;BME280;51448;51.660;5.824;2023-01-09T01:53:45;99350.31;;;5.95;100.00
61119;BME280;51448;51.660;5.824;2023-01-09T01:56:21;99357.34;;;5.92;100.00
61119;BME280;51448;51.660;5.824;2023-01-09T01:59:03;99354.78;;;5.90;100.00
61119;BME280;51448;51.660;5.824;2023-01-09T02:01:37;99350.56;;;5.86;100.00
61119;BME280;51448;51.660;5.824;2023-01-09T02:04:09;99348.06;;;5.83;100.00
61119;BME280;51448;51.660;5.824;2023-01-09T02:06:38;99344.66;;;5.81;100.00
61119;BME280;51448;51.660;5.824;2023-01-09T02:09:07;99356.00;;;5.80;100.00
61119;BME280;51448;51.660;5.824;2023-01-09T02:11:35;99356.06;;;5.78;100.00
61119;BME280;51448;51.660;5.824;2023-01-09T02:14:03;99350.88;;;5.77;100.00
61119;BME280;51448;51.660;5.824;2023-01-09T02:16:52;99353.50;;;5.77;100.00
61119;BME280;51448;51.660;5.824;2023-01-09T02:32:23;99363.56;;;5.61;100.00
61119;BME280;51448;51.660;5.824;2023-01-09T02:35:23;99362.78;;;5.57;100.00
61119;BME280;51448;51.660;5.824;2023-01-09T02:44:25;99368.31;;;5.48;100.00
61119;BME280;51448;51.660;5.824;2023-01-09T02:47:04;99376.97;;;5.49;100.00
61119;BME280;51448;51.660;5.824;2023-01-09T02:49:36;99377.00;;;5.47;100.00
61119;BME280;51448;51.660;5.824;2023-01-09T02:52:21;99369.19;;;5.47;100.00
61119;BME280;51448;51.660;5.824;2023-01-09T02:55:08;99364.09;;;5.44;100.00
61119;BME280;51448;51.660;5.824;2023-01-09T02:57:56;99363.28;;;5.42;100.00
61119;BME280;51448;51.660;5.824;2023-01-09T03:00:52;99356.41;;;5.39;100.00
61119;BME280;51448;51.660;5.824;2023-01-09T03:09:14;99365.28;;;5.32;100.00
61119;BME280;51448;51.660;5.824;2023-01-09T03:11:51;99354.09;;;5.29;100.00
61119;BME280;51448;51.660;5.824;2023-01-09T03:14:24;99352.44;;;5.26;100.00
61119;BME280;51448;51.660;5.824;2023-01-09T03:16:55;99347.34;;;5.23;100.00
61119;BME280;51448;51.660;5.824;2023-01-09T03:19:29;99345.66;;;5.20;100.00
61119;BME280;51448;51.660;5.824;2023-01-09T03:21:59;99351.00;;;5.16;100.00
61119;BME280;51448;51.660;5.824;2023-01-09T03:24:27;99353.66;;;5.14;100.00
61119;BME280;51448;51.660;5.824;2023-01-09T03:26:54;99351.16;;;5.11;100.00
61119;BME280;51448;51.660;5.824;2023-01-09T03:29:22;99349.44;;;5.10;100.00
61119;BME280;51448;51.660;5.824;2023-01-09T03:31:50;99347.75;;;5.09;100.00
61119;BME280;51448;51.660;5.824;2023-01-09T03:34:19;99351.19;;;5.10;100.00
61119;BME280;51448;51.660;5.824;2023-01-09T03:36:47;99350.34;;;5.09;100.00
61119;BME280;51448;51.660;5.824;2023-01-09T03:39:14;99358.19;;;5.08;100.00
61119;BME280;51448;51.660;5.824;2023-01-09T03:41:42;99353.00;;;5.08;100.00
61119;BME280;51448;51.660;5.824;2023-01-09T03:44:09;99352.16;;;5.07;100.00
61119;BME280;51448;51.660;5.824;2023-01-09T03:46:37;99357.34;;;5.07;100.00
61119;BME280;51448;51.660;5.824;2023-01-09T03:49:04;99366.06;;;5.06;100.00
61119;BME280;51448;51.660;5.824;2023-01-09T03:51:32;99367.81;;;5.06;100.00
61119;BME280;51448;51.660;5.824;2023-01-09T03:54:03;99369.56;;;5.05;100.00
61119;BME280;51448;51.660;5.824;2023-01-09T03:56:36;99372.22;;;5.03;100.00
61119;BME280;51448;51.660;5.824;2023-01-09T03:59:04;99368.78;;;5.03;100.00
61119;BME280;51448;51.660;5.824;2023-01-09T04:01:34;99374.84;;;5.02;100.00
61119;BME280;51448;51.660;5.824;2023-01-09T04:04:02;99367.00;;;5.03;100.00
61119;BME280;51448;51.660;5.824;2023-01-09T04:06:29;99360.97;;;5.01;100.00
61119;BME280;51448;51.660;5.824;2023-01-09T04:08:57;99358.38;;;5.01;100.00
61119;BME280;51448;51.660;5.824;2023-01-09T04:11:24;99350.56;;;5.01;100.00
61119;BME280;51448;51.660;5.824;2023-01-09T04:13:52;99363.63;;;5.00;100.00
61119;BME280;51448;51.660;5.824;2023-01-09T04:16:20;99359.34;;;4.99;100.00
61119;BME280;51448;51.660;5.824;2023-01-09T04:18:47;99358.47;;;4.98;100.00
61119;BME280;51448;51.660;5.824;2023-01-09T04:21:15;99357.56;;;4.99;100.00
61119;BME280;51448;51.660;5.824;2023-01-09T04:23:42;99374.06;;;5.00;100.00
61119;BME280;51448;51.660;5.824;2023-01-09T04:26:11;99374.00;;;5.01;100.00
61119;BME280;51448;51.660;5.824;2023-01-09T04:28:39;99369.66;;;5.02;100.00
61119;BME280;51448;51.660;5.824;2023-01-09T04:31:06;99369.66;;;5.02;100.00
61119;BME280;51448;51.660;5.824;2023-01-09T04:33:34;99373.06;;;5.04;100.00
61119;BME280;51448;51.660;5.824;2023-01-09T04:36:02;99374.78;;;5.05;100.00
61119;BME280;51448;51.660;5.824;2023-01-09T04:38:30;99371.34;;;5.04;100.00
61119;BME280;51448;51.660;5.824;2023-01-09T04:40:57;99370.47;;;5.04;100.00
61119;BME280;51448;51.660;5.824;2023-01-09T04:43:28;99380.84;;;5.06;100.00
61119;BME280;51448;51.660;5.824;2023-01-09T04:45:55;99375.63;;;5.06;100.00
61119;BME280;51448;51.660;5.824;2023-01-09T04:48:23;99379.06;;;5.08;100.00
61119;BME280;51448;51.660;5.824;2023-01-09T04:50:51;99384.22;;;5.09;100.00
61119;BME280;51448;51.660;5.824;2023-01-09T04:53:19;99381.59;;;5.11;100.00
61119;BME280;51448;51.660;5.824;2023-01-09T04:55:46;99383.25;;;5.13;100.00
61119;BME280;51448;51.660;5.824;2023-01-09T04:58:14;99377.81;;;5.21;100.00
61119;BME280;51448;51.660;5.824;2023-01-09T05:00:42;99372.44;;;5.26;100.00
61119;BME280;51448;51.660;5.824;2023-01-09T05:03:10;99371.47;;;5.30;100.00
61119;BME280;51448;51.660;5.824;2023-01-09T05:05:40;99371.28;;;5.36;100.00
61119;BME280;51448;51.660;5.824;2023-01-09T05:08:28;99373.78;;;5.39;100.00
61119;BME280;51448;51.660;5.824;2023-01-09T05:10:56;99374.56;;;5.42;100.00
61119;BME280;51448;51.660;5.824;2023-01-09T05:13:31;99377.00;;;5.47;100.00
61119;BME280;51448;51.660;5.824;2023-01-09T05:16:06;99380.44;;;5.49;100.00
61119;BME280;51448;51.660;5.824;2023-01-09T05:18:37;99379.41;;;5.55;100.00
61119;BME280;51448;51.660;5.824;2023-01-09T05:21:05;99383.66;;;5.57;100.00
61119;BME280;51448;51.660;5.824;2023-01-09T05:23:35;99366.97;;;5.63;100.00
61119;BME280;51448;51.660;5.824;2023-01-09T05:26:06;99373.94;;;5.62;100.00
61119;BME280;51448;51.660;5.824;2023-01-09T05:28:37;99373.03;;;5.63;100.00
61119;BME280;51448;51.660;5.824;2023-01-09T05:31:05;99376.38;;;5.69;100.00
61119;BME280;51448;51.660;5.824;2023-01-09T05:33:33;99375.31;;;5.74;100.00
61119;BME280;51448;51.660;5.824;2023-01-09T05:36:06;99374.38;;;5.77;100.00
61119;BME280;51448;51.660;5.824;2023-01-09T05:38:34;99369.03;;;5.80;100.00
61119;BME280;51448;51.660;5.824;2023-01-09T05:41:03;99372.38;;;5.85;100.00
61119;BME280;51448;51.660;5.824;2023-01-09T05:43:38;99369.72;;;5.87;100.00
61119;BME280;51448;51.660;5.824;2023-01-09T05:46:07;99360.00;;;5.90;100.00
61119;BME280;51448;51.660;5.824;2023-01-09T05:48:38;99370.38;;;5.93;100.00
61119;BME280;51448;51.660;5.824;2023-01-09T05:51:20;99353.72;;;5.97;100.00
61119;BME280;51448;51.660;5.824;2023-01-09T05:53:53;99357.16;;;5.99;100.00
61119;BME280;51448;51.660;5.824;2023-01-09T05:56:26;99358.78;;;6.02;100.00
61119;BME280;51448;51.660;5.824;2023-01-09T05:58:56;99357.84;;;6.04;100.00
61119;BME280;51448;51.660;5.824;2023-01-09T06:01:28;99359.50;;;6.07;100.00
61119;BME280;51448;51.660;5.824;2023-01-09T06:04:04;99368.94;;;6.11;100.00
61119;BME280;51448;51.660;5.824;2023-01-09T06:06:34;99361.91;;;6.13;100.00
61119;BME280;51448;51.660;5.824;2023-01-09T06:09:03;99357.50;;;6.15;100.00
61119;BME280;51448;51.660;5.824;2023-01-09T06:11:34;99356.50;;;6.19;100.00
61119;BME280;51448;51.660;5.824;2023-01-09T06:14:09;99361.59;;;6.22;100.00
61119;BME280;51448;51.660;5.824;2023-01-09T06:16:37;99352.81;;;6.25;100.00
61119;BME280;51448;51.660;5.824;2023-01-09T06:19:06;99350.94;;;6.29;100.00
61119;BME280;51448;51.660;5.824;2023-01-09T06:21:33;99344.75;;;6.31;100.00
61119;BME280;51448;51.660;5.824;2023-01-09T06:24:06;99343.75;;;6.35;100.00
61119;BME280;51448;51.660;5.824;2023-01-09T06:26:34;99337.63;;;6.36;100.00
61119;BME280;51448;51.660;5.824;2023-01-09T06:29:08;99350.56;;;6.39;100.00
61119;BME280;51448;51.660;5.824;2023-01-09T06:31:36;99340.03;;;6.42;100.00
61119;BME280;51448;51.660;5.824;2023-01-09T06:34:07;99338.22;;;6.44;100.00
61119;BME280;51448;51.660;5.824;2023-01-09T06:36:40;99339.06;;;6.45;100.00
61119;BME280;51448;51.660;5.824;2023-01-09T06:39:11;99343.31;;;6.48;100.00
61119;BME280;51448;51.660;5.824;2023-01-09T06:41:40;99349.34;;;6.50;100.00
61119;BME280;51448;51.660;5.824;2023-01-09T06:44:07;99348.41;;;6.52;100.00
61119;BME280;51448;51.660;5.824;2023-01-09T06:46:35;99351.81;;;6.54;100.00
61119;BME280;51448;51.660;5.824;2023-01-09T06:49:07;99356.97;;;6.56;100.00
61119;BME280;51448;51.660;5.824;2023-01-09T06:51:38;99348.19;;;6.58;100.00
61119;BME280;51448;51.660;5.824;2023-01-09T06:54:06;99357.75;;;6.58;100.00
61119;BME280;51448;51.660;5.824;2023-01-09T06:56:34;99361.25;;;6.58;100.00
61119;BME280;51448;51.660;5.824;2023-01-09T06:59:01;99356.03;;;6.58;100.00
61119;BME280;51448;51.660;5.824;2023-01-09T07:01:29;99354.22;;;6.60;100.00
61119;BME280;51448;51.660;5.824;2023-01-09T07:03:57;99349.88;;;6.59;100.00
61119;BME280;51448;51.660;5.824;2023-01-09T07:06:24;99346.38;;;6.60;100.00
61119;BME280;51448;51.660;5.824;2023-01-09T07:08:52;99348.03;;;6.63;100.00
61119;BME280;51448;51.660;5.824;2023-01-09T07:11:20;99348.03;;;6.63;100.00
61119;BME280;51448;51.660;5.824;2023-01-09T07:13:47;99347.03;;;6.65;100.00
61119;BME280;51448;51.660;5.824;2023-01-09T07:16:15;99347.00;;;6.67;100.00
61119;BME280;51448;51.660;5.824;2023-01-09T07:18:43;99350.47;;;6.68;100.00
61119;BME280;51448;51.660;5.824;2023-01-09T07:21:10;99351.31;;;6.68;100.00
61119;BME280;51448;51.660;5.824;2023-01-09T07:23:41;99346.03;;;6.70;100.00
61119;BME280;51448;51.660;5.824;2023-01-09T07:26:08;99352.09;;;6.70;100.00
61119;BME280;51448;51.660;5.824;2023-01-09T07:28:36;99346.81;;;6.72;100.00
61119;BME280;51448;51.660;5.824;2023-01-09T07:31:04;99343.25;;;6.74;100.00
61119;BME280;51448;51.660;5.824;2023-01-09T07:33:34;99353.69;;;6.74;100.00
61119;BME280;51448;51.660;5.824;2023-01-09T07:36:01;99356.31;;;6.74;100.00
61119;BME280;51448;51.660;5.824;2023-01-09T07:38:29;99366.72;;;6.76;100.00
61119;BME280;51448;51.660;5.824;2023-01-09T07:40:56;99363.22;;;6.77;100.00
61119;BME280;51448;51.660;5.824;2023-01-09T07:43:24;99364.06;;;6.77;100.00
61119;BME280;51448;51.660;5.824;2023-01-09T07:45:51;99376.19;;;6.78;100.00
61119;BME280;51448;51.660;5.824;2023-01-09T07:48:19;99378.81;;;6.78;100.00
61119;BME280;51448;51.660;5.824;2023-01-09T07:50:47;99373.53;;;6.80;100.00
61119;BME280;51448;51.660;5.824;2023-01-09T07:53:15;99383.09;;;6.81;100.00
61119;BME280;51448;51.660;5.824;2023-01-09T07:55:42;99374.38;;;6.80;100.00
61119;BME280;51448;51.660;5.824;2023-01-09T07:58:10;99389.97;;;6.83;100.00
61119;BME280;51448;51.660;5.824;2023-01-09T08:00:38;99386.50;;;6.83;100.00
61119;BME280;51448;51.660;5.824;2023-01-09T08:03:06;99389.97;;;6.83;100.00
61119;BME280;51448;51.660;5.824;2023-01-09T08:05:33;99392.53;;;6.85;100.00
61119;BME280;51448;51.660;5.824;2023-01-09T08:08:01;99399.50;;;6.84;100.00
61119;BME280;51448;51.660;5.824;2023-01-09T08:10:29;99403.84;;;6.85;100.00
61119;BME280;51448;51.660;5.824;2023-01-09T08:12:56;99411.66;;;6.85;100.00
61119;BME280;51448;51.660;5.824;2023-01-09T08:15:24;99403.00;;;6.85;100.00
61119;BME280;51448;51.660;5.824;2023-01-09T08:17:51;99421.19;;;6.87;100.00
61119;BME280;51448;51.660;5.824;2023-01-09T08:20:19;99418.59;;;6.87;100.00
61119;BME280;51448;51.660;5.824;2023-01-09T08:22:46;99428.16;;;6.88;100.00
61119;BME280;51448;51.660;5.824;2023-01-09T08:25:20;99419.38;;;6.89;100.00
61119;BME280;51448;51.660;5.824;2023-01-09T08:27:48;99425.53;;;6.88;100.00
61119;BME280;51448;51.660;5.824;2023-01-09T08:30:16;99440.28;;;6.89;100.00
61119;BME280;51448;51.660;5.824;2023-01-09T08:32:49;99445.44;;;6.92;100.00
61119;BME280;51448;51.660;5.824;2023-01-09T08:35:18;99441.09;;;6.91;100.00
61119;BME280;51448;51.660;5.824;2023-01-09T08:37:47;99456.69;;;6.94;100.00
61119;BME280;51448;51.660;5.824;2023-01-09T08:40:15;99455.75;;;6.95;100.00
61119;BME280;51448;51.660;5.824;2023-01-09T08:42:44;99466.19;;;6.96;100.00
61119;BME280;51448;51.660;5.824;2023-01-09T08:45:31;99463.50;;;6.98;100.00
61119;BME280;51448;51.660;5.824;2023-01-09T08:48:17;99469.53;;;7.00;100.00
61119;BME280;51448;51.660;5.824;2023-01-09T08:50:45;99471.16;;;7.04;100.00
61119;BME280;51448;51.660;5.824;2023-01-09T08:53:13;99474.56;;;7.06;100.00
61119;BME280;51448;51.660;5.824;2023-01-09T08:55:42;99483.19;;;7.08;100.00
61119;BME280;51448;51.660;5.824;2023-01-09T08:58:09;99488.31;;;7.11;100.00
61119;BME280;51448;51.660;5.824;2023-01-09T09:00:37;99494.25;;;7.16;100.00
61119;BME280;51448;51.660;5.824;2023-01-09T09:03:05;99498.44;;;7.20;100.00
61119;BME280;51448;51.660;5.824;2023-01-09T09:05:32;99501.69;;;7.27;100.00
61119;BME280;51448;51.660;5.824;2023-01-09T09:08:01;99500.72;;;7.30;100.00
61119;BME280;51448;51.660;5.824;2023-01-09T09:10:31;99510.28;;;7.31;100.00
61119;BME280;51448;51.660;5.824;2023-01-09T09:12:58;99517.22;;;7.32;100.00
61119;BME280;51448;51.660;5.824;2023-01-09T09:15:27;99519.84;;;7.32;100.00
61119;BME280;51448;51.660;5.824;2023-01-09T09:17:56;99527.63;;;7.33;100.00
61119;BME280;51448;51.660;5.824;2023-01-09T09:20:29;99535.47;;;7.33;100.00
61119;BME280;51448;51.660;5.824;2023-01-09T09:23:01;99540.72;;;7.33;100.00
61119;BME280;51448;51.660;5.824;2023-01-09T09:25:29;99548.50;;;7.35;100.00
61119;BME280;51448;51.660;5.824;2023-01-09T09:27:57;99557.16;;;7.37;100.00
61119;BME280;51448;51.660;5.824;2023-01-09T09:30:27;99556.22;;;7.38;100.00
61119;BME280;51448;51.660;5.824;2023-01-09T09:32:55;99556.19;;;7.39;100.00
61119;BME280;51448;51.660;5.824;2023-01-09T09:35:22;99566.66;;;7.39;100.00
61119;BME280;51448;51.660;5.824;2023-01-09T09:38:00;99565.69;;;7.42;100.00
61119;BME280;51448;51.660;5.824;2023-01-09T09:53:26;99602.63;;;7.33;100.00
61119;BME280;51448;51.660;5.824;2023-01-09T09:55:59;99604.34;;;7.34;100.00
61119;BME280;51448;51.660;5.824;2023-01-09T09:58:36;99615.59;;;7.36;100.00
61119;BME280;51448;51.660;5.824;2023-01-09T10:01:34;99622.59;;;7.35;100.00
61119;BME280;51448;51.660;5.824;2023-01-09T10:04:11;99618.16;;;7.37;100.00
61119;BME280;51448;51.660;5.824;2023-01-09T10:06:48;99633.81;;;7.39;100.00
61119;BME280;51448;51.660;5.824;2023-01-09T10:09:41;99643.22;;;7.44;100.00
61119;BME280;51448;51.660;5.824;2023-01-09T10:12:29;99628.31;;;7.47;100.00
61119;BME280;51448;51.660;5.824;2023-01-09T10:15:17;99641.34;;;7.48;100.00
61119;BME280;51448;51.660;5.824;2023-01-09T10:18:02;99649.19;;;7.48;100.00
61119;BME280;51448;51.660;5.824;2023-01-09T10:20:57;99659.56;;;7.51;100.00
61119;BME280;51448;51.660;5.824;2023-01-09T10:26:31;99658.53;;;7.55;100.00
61119;BME280;51448;51.660;5.824;2023-01-09T10:29:42;99658.28;;;7.63;100.00
61119;BME280;51448;51.660;5.824;2023-01-09T10:32:38;99652.19;;;7.62;100.00
61119;BME280;51448;51.660;5.824;2023-01-09T10:38:32;99657.41;;;7.62;100.00
61119;BME280;51448;51.660;5.824;2023-01-09T10:41:11;99658.22;;;7.64;100.00
61119;BME280;51448;51.660;5.824;2023-01-09T10:44:20;99667.84;;;7.64;100.00
61119;BME280;51448;51.660;5.824;2023-01-09T10:47:10;99670.44;;;7.64;100.00
61119;BME280;51448;51.660;5.824;2023-01-09T10:49:44;99671.25;;;7.66;100.00
61119;BME280;51448;51.660;5.824;2023-01-09T10:52:27;99677.13;;;7.73;100.00
61119;BME280;51448;51.660;5.824;2023-01-09T10:55:35;99688.09;;;7.84;100.00
61119;BME280;51448;51.660;5.824;2023-01-09T10:58:17;99672.25;;;7.87;100.00
61119;BME280;51448;51.660;5.824;2023-01-09T11:00:48;99669.53;;;7.90;100.00
61119;BME280;51448;51.660;5.824;2023-01-09T11:03:19;99683.44;;;7.92;100.00
61119;BME280;51448;51.660;5.824;2023-01-09T11:05:59;99679.84;;;7.95;100.00
61119;BME280;51448;51.660;5.824;2023-01-09T11:08:33;99683.44;;;7.92;100.00
61119;BME280;51448;51.660;5.824;2023-01-09T11:11:09;99697.41;;;7.91;100.00
61119;BME280;51448;51.660;5.824;2023-01-09T11:13:38;99689.69;;;7.88;100.00
61119;BME280;51448;51.660;5.824;2023-01-09T11:16:21;99694.06;;;7.88;100.00
61119;BME280;51448;51.660;5.824;2023-01-09T11:18:55;99696.75;;;7.86;100.00
61119;BME280;51448;51.660;5.824;2023-01-09T11:21:37;99694.91;;;7.88;100.00
61119;BME280;51448;51.660;5.824;2023-01-09T11:26:45;99701.59;;;7.97;100.00
61119;BME280;51448;51.660;5.824;2023-01-09T11:29:19;99712.78;;;8.02;100.00
61119;BME280;51448;51.660;5.824;2023-01-09T11:31:58;99711.81;;;8.04;100.00
61119;BME280;51448;51.660;5.824;2023-01-09T11:34:29;99711.75;;;8.06;100.00
61119;BME280;51448;51.660;5.824;2023-01-09T11:37:11;99710.59;;;8.13;100.00
61119;BME280;51448;51.660;5.824;2023-01-09T11:39:44;99706.00;;;8.20;100.00
61119;BME280;51448;51.660;5.824;2023-01-09T11:42:22;99723.31;;;8.24;100.00
61119;BME280;51448;51.660;5.824;2023-01-09T11:45:19;99721.63;;;8.23;100.00
61119;BME280;51448;51.660;5.824;2023-01-09T11:47:51;99727.69;;;8.23;100.00
61119;BME280;51448;51.660;5.824;2023-01-09T11:50:26;99718.06;;;8.24;100.00
61119;BME280;51448;51.660;5.824;2023-01-09T11:53:15;99725.84;;;8.27;100.00
61119;BME280;51448;51.660;5.824;2023-01-09T11:55:45;99713.63;;;8.26;100.00
61119;BME280;51448;51.660;5.824;2023-01-09T11:58:23;99721.50;;;8.26;100.00
61119;BME280;51448;51.660;5.824;2023-01-09T12:01:02;99730.94;;;8.30;100.00
61119;BME280;51448;51.660;5.824;2023-01-09T12:10:36;99735.78;;;8.42;100.00
61119;BME280;51448;51.660;5.824;2023-01-09T12:13:37;99730.47;;;8.44;100.00
61119;BME280;51448;51.660;5.824;2023-01-09T12:25:18;99738.50;;;8.39;100.00
61119;BME280;51448;51.660;5.824;2023-01-09T12:28:08;99745.50;;;8.39;100.00
61119;BME280;51448;51.660;5.824;2023-01-09T12:31:08;99752.44;;;8.41;100.00
61119;BME280;51448;51.660;5.824;2023-01-09T12:33:53;99751.50;;;8.42;100.00
61119;BME280;51448;51.660;5.824;2023-01-09T12:39:56;99767.97;;;8.46;100.00
61119;BME280;51448;51.660;5.824;2023-01-09T12:52:24;99771.34;;;8.50;100.00
61119;BME280;51448;51.660;5.824;2023-01-09T12:59:52;99785.47;;;8.45;100.00
61119;BME280;51448;51.660;5.824;2023-01-09T13:02:38;99781.03;;;8.48;100.00
61119;BME280;51448;51.660;5.824;2023-01-09T13:05:27;99783.59;;;8.49;100.00
61119;BME280;51448;51.660;5.824;2023-01-09T13:08:07;99792.31;;;8.50;100.00
61119;BME280;51448;51.660;5.824;2023-01-09T13:10:42;99802.00;;;8.48;100.00
61119;BME280;51448;51.660;5.824;2023-01-09T13:13:18;99800.34;;;8.45;100.00
61119;BME280;51448;51.660;5.824;2023-01-09T13:15:53;99801.28;;;8.42;100.00
61119;BME280;51448;51.660;5.824;2023-01-09T13:18:29;99806.63;;;8.39;100.00
61119;BME280;51448;51.660;5.824;2023-01-09T13:21:02;99806.72;;;8.36;100.00
61119;BME280;51448;51.660;5.824;2023-01-09T13:23:42;99813.66;;;8.37;100.00
61119;BME280;51448;51.660;5.824;2023-01-09T13:26:23;99811.00;;;8.39;100.00
61119;BME280;51448;51.660;5.824;2023-01-09T13:29:16;99809.22;;;8.39;100.00
61119;BME280;51448;51.660;5.824;2023-01-09T13:34:44;99841.69;;;8.35;100.00
61119;BME280;51448;51.660;5.824;2023-01-09T13:43:05;99856.56;;;8.35;100.00
61119;BME280;51448;51.660;5.824;2023-01-09T13:45:38;99852.94;;;8.39;100.00
61119;BME280;51448;51.660;5.824;2023-01-09T13:50:46;99859.72;;;8.44;100.00
61119;BME280;51448;51.660;5.824;2023-01-09T13:58:26;99876.03;;;8.53;100.00
61119;BME280;51448;51.660;5.824;2023-01-09T14:00:57;99878.56;;;8.56;100.00
61119;BME280;51448;51.660;5.824;2023-01-09T14:03:35;99886.22;;;8.62;100.00
61119;BME280;51448;51.660;5.824;2023-01-09T14:06:10;99887.03;;;8.64;100.00
61119;BME280;51448;51.660;5.824;2023-01-09T14:08:41;99894.88;;;8.64;100.00
61119;BME280;51448;51.660;5.824;2023-01-09T14:11:17;99902.72;;;8.65;99.15
61119;BME280;51448;51.660;5.824;2023-01-09T14:14:00;99909.78;;;8.63;99.47
61119;BME280;51448;51.660;5.824;2023-01-09T14:16:30;99919.31;;;8.64;99.42
61119;BME280;51448;51.660;5.824;2023-01-09T14:22:00;99935.91;;;8.65;99.69
61119;BME280;51448;51.660;5.824;2023-01-09T14:24:30;99934.22;;;8.64;99.54
61119;BME280;51448;51.660;5.824;2023-01-09T14:36:17;99965.63;;;8.65;98.48
61119;BME280;51448;51.660;5.824;2023-01-09T14:38:51;99970.94;;;8.62;97.98
61119;BME280;51448;51.660;5.824;2023-01-09T14:41:49;99977.03;;;8.63;98.33
61119;BME280;51448;51.660;5.824;2023-01-09T14:50:16;99990.47;;;8.54;98.99
61119;BME280;51448;51.660;5.824;2023-01-09T14:53:15;100001.03;;;8.51;98.87
61119;BME280;51448;51.660;5.824;2023-01-09T14:55:51;100003.78;;;8.48;99.64
61119;BME280;51448;51.660;5.824;2023-01-09T14:58:33;100003.00;;;8.44;99.71
61119;BME280;51448;51.660;5.824;2023-01-09T15:03:37;100030.41;;;8.32;100.00
61119;BME280;51448;51.660;5.824;2023-01-09T15:06:23;100033.19;;;8.27;100.00
61119;BME280;51448;51.660;5.824;2023-01-09T15:09:00;100040.28;;;8.24;100.00
61119;BME280;51448;51.660;5.824;2023-01-09T15:11:32;100050.91;;;8.19;100.00
61119;BME280;51448;51.660;5.824;2023-01-09T15:14:01;100048.31;;;8.18;100.00
61119;BME280;51448;51.660;5.824;2023-01-09T15:16:31;100047.63;;;8.13;100.00
61119;BME280;51448;51.660;5.824;2023-01-09T15:19:02;100064.31;;;8.10;100.00
61119;BME280;51448;51.660;5.824;2023-01-09T15:21:33;100068.78;;;8.06;100.00
61119;BME280;51448;51.660;5.824;2023-01-09T15:24:19;100069.66;;;8.05;100.00
61119;BME280;51448;51.660;5.824;2023-01-09T15:26:54;100072.38;;;8.02;100.00
61119;BME280;51448;51.660;5.824;2023-01-09T15:29:24;100085.50;;;8.01;100.00
61119;BME280;51448;51.660;5.824;2023-01-09T15:31:57;100082.94;;;7.99;100.00
61119;BME280;51448;51.660;5.824;2023-01-09T15:34:31;100091.75;;;7.97;100.00